Genoa, Colorado
Current Conditions -  °F | °C
As of 4:55 PM on Friday 21 Nov 2014 (Local Time) from KLIC Reporting Station
Clear Clear  
Wind Chill: 29°   Ceiling: Unl
Heat Index: 34°   Visibility: 10mi
Dew Point: 18°   Wind: 6mph
Humidity: 52%   Direction: 360°N
Pressure: 29.95"   Gusts: NA
Location:  39.28°N, 103.5°W
Report Text: KLIC 212355Z AUTO 36005KT 10SM CLR 01/M08 A2995 RMK AO2 SLP164 T00111078 10128 20011 51010
Loading
Personal Weather Stations






























Interactive Weather Map New forecast layout! Learn more

10-Day Weather Forecast

Advertisements
Track Severe Weather on mobile